createdAt,value
2018-11-21T00:01:24.579Z,1.09
2018-11-21T00:03:53.257Z,1.09
2018-11-21T00:06:41.533Z,1.09
2018-11-21T00:09:13.647Z,1.09
2018-11-21T00:11:42.376Z,1.10
2018-11-21T00:14:30.703Z,1.08
2018-11-21T00:16:59.414Z,1.07
2018-11-21T00:19:28.095Z,1.07
2018-11-21T00:21:56.796Z,1.08
2018-11-21T00:24:45.052Z,1.11
2018-11-21T00:27:13.831Z,1.11
2018-11-21T00:29:42.521Z,1.09
2018-11-21T00:32:21.724Z,1.11
2018-11-21T00:34:51.128Z,1.13
2018-11-21T00:37:20.749Z,1.11
2018-11-21T00:40:09.995Z,1.17
2018-11-21T00:42:38.725Z,1.19
2018-11-21T00:45:08.446Z,1.16
2018-11-21T00:47:37.132Z,1.18
2018-11-21T00:50:25.415Z,1.13
2018-11-21T00:53:13.718Z,1.13
2018-11-21T00:55:42.417Z,1.12
2018-11-21T00:58:30.708Z,1.10
2018-11-21T01:00:59.425Z,1.09
2018-11-21T01:03:28.147Z,1.08
2018-11-21T01:05:56.904Z,1.04
2018-11-21T01:08:45.221Z,1.04
2018-11-21T01:11:13.946Z,1.04
2018-11-21T01:13:42.600Z,1.05
2018-11-21T01:16:11.725Z,1.01
2018-11-21T01:19:00.019Z,1.00
2018-11-21T01:21:28.698Z,0.97
2018-11-21T01:23:57.366Z,0.84
2018-11-21T01:26:26.076Z,0.76
2018-11-21T01:29:14.337Z,0.67
2018-11-21T01:31:43.134Z,0.51
2018-11-21T01:34:11.814Z,0.42
2018-11-21T01:36:40.493Z,0.32
2018-11-21T01:39:28.756Z,0.29
2018-11-21T01:41:57.552Z,0.23
2018-11-21T01:44:26.280Z,0.11
2018-11-21T01:46:54.969Z,0.02
2018-11-21T01:49:43.255Z,-0.07
2018-11-21T01:52:11.904Z,-0.17
2018-11-21T01:54:40.592Z,-0.23
2018-11-21T01:57:09.229Z,-0.31
2018-11-21T01:59:57.465Z,-0.40
2018-11-21T02:02:26.077Z,-0.47
2018-11-21T02:04:54.785Z,-0.53
2018-11-21T02:07:23.452Z,-0.56
2018-11-21T02:10:11.369Z,-0.53
2018-11-21T02:12:40.089Z,-0.56
2018-11-21T02:15:08.762Z,-0.62
2018-11-21T02:17:57.036Z,-0.67
2018-11-21T02:20:25.740Z,-0.71
2018-11-21T02:22:54.397Z,-0.73
2018-11-21T02:25:23.085Z,-0.71
2018-11-21T02:28:11.406Z,-0.71
2018-11-21T02:30:40.100Z,-0.68
2018-11-21T02:33:28.268Z,-0.62
2018-11-21T02:35:57.023Z,-0.62
2018-11-21T02:38:25.665Z,-0.59
2018-11-21T02:40:54.343Z,-0.53
2018-11-21T02:43:42.617Z,-0.49
2018-11-21T02:46:11.356Z,-0.43
2018-11-21T02:48:40.018Z,-0.33
2018-11-21T02:51:08.723Z,-0.29
2018-11-21T02:53:56.943Z,-0.23
2018-11-21T02:57:05.702Z,-0.17
2018-11-21T02:59:34.414Z,-0.14
2018-11-21T03:02:22.376Z,-0.08
2018-11-21T03:04:51.061Z,-0.07
2018-11-21T03:07:19.742Z,-0.03
2018-11-21T03:10:07.984Z,0.00
2018-11-21T03:12:36.678Z,0.06
2018-11-21T03:15:05.609Z,0.08
2018-11-21T03:17:34.228Z,0.11
2018-11-21T03:20:22.185Z,0.12
2018-11-21T03:22:51.233Z,0.15
2018-11-21T03:25:19.808Z,0.16
2018-11-21T03:28:08.121Z,0.18
2018-11-21T03:30:36.868Z,0.22
2018-11-21T03:33:06.009Z,0.26
2018-11-21T03:35:34.645Z,0.25
2018-11-21T03:38:22.880Z,0.29
2018-11-21T03:40:51.615Z,0.29
2018-11-21T03:43:20.361Z,0.26
2018-11-21T03:45:48.973Z,0.25
2018-11-21T03:48:37.216Z,0.26
2018-11-21T03:51:06.414Z,0.27
2018-11-21T03:53:35.113Z,0.25
2018-11-21T03:56:03.803Z,0.28
2018-11-21T03:58:52.035Z,0.28
2018-11-21T04:01:20.757Z,0.30
2018-11-21T04:03:49.476Z,0.30
2018-11-21T04:06:18.147Z,0.32
2018-11-21T04:09:25.647Z,0.34
2018-11-21T04:11:54.594Z,0.36
2018-11-21T04:14:42.566Z,0.38
2018-11-21T04:17:11.201Z,0.38
2018-11-21T04:19:39.864Z,0.40
2018-11-21T04:22:28.133Z,0.39
2018-11-21T04:24:56.850Z,0.43
2018-11-21T04:27:25.504Z,0.42
2018-11-21T04:29:54.178Z,0.43
2018-11-21T04:32:42.423Z,0.49
2018-11-21T04:35:11.173Z,0.49
2018-11-21T04:37:39.835Z,0.53
2018-11-21T04:40:28.115Z,0.53
2018-11-21T04:42:56.760Z,0.54
2018-11-21T04:45:25.480Z,0.55
2018-11-21T04:47:54.172Z,0.56
2018-11-21T04:50:42.405Z,0.55
2018-11-21T04:53:11.038Z,0.57
2018-11-21T04:55:39.638Z,0.56
2018-11-21T04:58:08.292Z,0.59
2018-11-21T05:00:56.542Z,0.58
2018-11-21T05:03:25.282Z,0.57
2018-11-21T05:05:53.949Z,0.61
2018-11-21T05:08:22.586Z,0.63
2018-11-21T05:11:10.826Z,0.63
2018-11-21T05:13:39.499Z,0.63
2018-11-21T05:16:08.159Z,0.62
2018-11-21T05:18:36.828Z,0.65
2018-11-21T05:21:25.055Z,0.69
2018-11-21T05:23:53.842Z,0.68
2018-11-21T05:26:22.456Z,0.69
2018-11-21T05:28:51.093Z,0.70
2018-11-21T05:31:39.341Z,0.70
2018-11-21T05:34:08.017Z,0.72
2018-11-21T05:36:37.112Z,0.72
2018-11-21T05:39:09.530Z,0.74
2018-11-21T05:41:57.812Z,0.78
2018-11-21T05:44:31.283Z,0.80
2018-11-21T05:46:57.770Z,0.78
2018-11-21T05:49:26.549Z,0.78
2018-11-21T05:52:14.816Z,0.78
2018-11-21T05:54:43.507Z,0.82
2018-11-21T05:57:12.394Z,0.86
2018-11-21T05:59:41.055Z,0.88
2018-11-21T06:02:53.120Z,0.87
2018-11-21T06:05:24.359Z,0.87
2018-11-21T06:07:53.120Z,0.88
2018-11-21T06:10:41.384Z,0.90
2018-11-21T06:13:10.197Z,0.90
2018-11-21T06:15:40.227Z,0.89
2018-11-21T06:18:07.734Z,0.91
2018-11-21T06:20:56.095Z,0.90
2018-11-21T06:23:24.833Z,0.91
2018-11-21T06:25:54.517Z,0.93
2018-11-21T06:28:23.188Z,0.91
2018-11-21T06:31:11.436Z,0.94
2018-11-21T06:33:40.119Z,0.95
2018-11-21T06:36:08.768Z,0.96
2018-11-21T06:38:37.392Z,0.97
2018-11-21T06:41:31.569Z,0.94
2018-11-21T06:44:23.314Z,0.92
2018-11-21T06:46:50.872Z,0.92
2018-11-21T06:52:00.046Z,0.94
2018-11-21T06:54:28.716Z,0.98
2018-11-21T06:56:57.388Z,1.01
2018-11-21T06:59:48.307Z,1.00
2018-11-21T07:02:17.106Z,0.96
2018-11-21T07:04:45.674Z,0.95
2018-11-21T07:07:34.071Z,0.93
2018-11-21T07:10:02.744Z,0.90
2018-11-21T07:12:31.455Z,0.89
2018-11-21T07:15:00.186Z,0.86
2018-11-21T07:17:48.217Z,0.88
2018-11-21T07:20:16.841Z,0.88
2018-11-21T07:23:05.112Z,0.88
2018-11-21T07:25:33.768Z,0.89
2018-11-21T07:28:02.439Z,0.93
2018-11-21T07:30:31.119Z,0.96
2018-11-21T07:33:19.352Z,0.97
2018-11-21T07:35:48.092Z,0.95
2018-11-21T07:38:16.773Z,0.97
2018-11-21T07:40:45.414Z,1.00
2018-11-21T07:43:33.642Z,1.01
2018-11-21T07:46:02.339Z,1.04
2018-11-21T07:48:31.133Z,1.03
2018-11-21T07:51:02.445Z,1.05
2018-11-21T07:53:48.025Z,1.07
2018-11-21T07:56:55.262Z,1.10
2018-11-21T07:59:23.926Z,1.11
2018-11-21T08:02:15.411Z,1.11
2018-11-21T08:05:03.141Z,1.12
2018-11-21T08:07:51.090Z,1.09
2018-11-21T08:10:39.032Z,1.10
2018-11-21T08:16:33.369Z,1.07
2018-11-21T08:19:23.862Z,1.10
2018-11-21T08:22:11.572Z,1.15
2018-11-21T08:28:05.897Z,1.18
2018-11-21T08:30:34.551Z,1.14
2018-11-21T08:33:22.535Z,1.14
2018-11-21T08:35:51.195Z,1.17
2018-11-21T08:38:19.820Z,1.19
2018-11-21T08:41:08.081Z,1.18
2018-11-21T08:43:48.905Z,1.22
2018-11-21T08:46:17.555Z,1.25
2018-11-21T08:49:05.700Z,1.30
2018-11-21T08:51:55.872Z,1.32
2018-11-21T08:54:24.548Z,1.30
2018-11-21T08:57:14.974Z,1.35
2018-11-21T08:59:43.645Z,1.36
2018-11-21T09:02:12.339Z,1.42
2018-11-21T09:05:00.627Z,1.42
2018-11-21T09:07:29.381Z,1.46
2018-11-21T09:09:58.100Z,1.44
2018-11-21T09:12:46.776Z,1.42
2018-11-21T09:15:16.705Z,1.42
2018-11-21T09:17:47.626Z,1.49
2018-11-21T09:20:16.246Z,1.49
2018-11-21T09:23:07.159Z,1.53
2018-11-21T09:25:35.899Z,1.49
2018-11-21T09:28:23.900Z,1.55
2018-11-21T09:30:52.639Z,1.61
2018-11-21T09:33:23.539Z,1.60
2018-11-21T09:36:11.492Z,1.62
2018-11-21T09:38:59.113Z,1.61
2018-11-21T09:41:27.865Z,1.69
2018-11-21T09:44:16.066Z,1.73
2018-11-21T09:46:44.999Z,1.80
2018-11-21T09:49:33.203Z,1.82
2018-11-21T09:54:49.592Z,1.85
2018-11-21T09:57:37.618Z,1.84
2018-11-21T10:00:46.780Z,1.82
2018-11-21T10:03:26.295Z,1.80
2018-11-21T10:06:00.381Z,1.82
2018-11-21T10:08:56.367Z,1.80
2018-11-21T10:11:25.086Z,1.82
2018-11-21T10:13:53.806Z,1.83
2018-11-21T10:16:24.026Z,1.89
2018-11-21T10:19:12.265Z,1.83
2018-11-21T10:21:40.932Z,1.84
2018-11-21T10:24:09.901Z,1.80
2018-11-21T10:26:38.533Z,1.83
2018-11-21T10:29:26.515Z,1.83
2018-11-21T10:31:55.171Z,1.88
2018-11-21T10:34:23.903Z,1.87
2018-11-21T10:36:52.585Z,1.92
2018-11-21T10:39:40.837Z,1.91
2018-11-21T10:42:09.547Z,1.94
2018-11-21T10:44:38.149Z,1.95
2018-11-21T10:47:06.819Z,1.91
2018-11-21T10:49:55.053Z,1.94
2018-11-21T10:53:02.024Z,1.96
2018-11-21T11:01:45.105Z,2.02
2018-11-21T11:04:34.735Z,2.04
2018-11-21T11:07:42.223Z,2.06
2018-11-21T11:10:31.293Z,2.09
2018-11-21T11:13:19.248Z,2.10
2018-11-21T11:19:15.804Z,2.17
2018-11-21T11:22:03.475Z,2.19
2018-11-21T11:24:51.122Z,2.22
2018-11-21T11:27:38.866Z,2.22
2018-11-21T11:33:33.154Z,2.23
2018-11-21T11:36:21.072Z,2.24
2018-11-21T11:39:08.733Z,2.23
2018-11-21T11:41:56.613Z,2.24
2018-11-21T11:44:44.568Z,2.24
2018-11-21T11:47:32.453Z,2.25
2018-11-21T11:50:20.124Z,2.21
2018-11-21T11:53:08.051Z,2.22
2018-11-21T11:58:36.567Z,2.21
2018-11-21T12:01:27.229Z,2.15
2018-11-21T12:04:17.029Z,2.12
2018-11-21T12:07:07.646Z,2.10
2018-11-21T12:09:55.605Z,2.06
2018-11-21T12:12:43.195Z,2.08
2018-11-21T12:15:31.117Z,2.04
2018-11-21T12:18:18.824Z,1.95
2018-11-21T12:21:06.441Z,1.98
2018-11-21T12:23:54.136Z,1.99
2018-11-21T12:29:54.660Z,2.03
2018-11-21T12:32:49.132Z,2.04
2018-11-21T12:35:37.201Z,2.05
2018-11-21T12:38:25.311Z,2.05
2018-11-21T12:41:13.012Z,2.03
2018-11-21T12:46:54.011Z,2.01
2018-11-21T12:49:55.369Z,1.97
2018-11-21T12:52:55.436Z,1.99
2018-11-21T12:55:43.577Z,1.99
2018-11-21T12:58:37.050Z,1.97
2018-11-21T13:01:25.131Z,1.99
2018-11-21T13:04:13.081Z,2.00
2018-11-21T13:07:00.789Z,1.99
2018-11-21T13:09:49.095Z,1.90
2018-11-21T13:12:36.773Z,1.88
2018-11-21T13:15:15.486Z,1.87
2018-11-21T13:18:03.206Z,1.88
2018-11-21T13:20:51.169Z,1.88
2018-11-21T13:23:58.134Z,1.91
2018-11-21T13:26:46.074Z,1.85
2018-11-21T13:29:33.749Z,1.75
2018-11-21T13:32:21.754Z,1.73
2018-11-21T13:35:09.462Z,1.74
2018-11-21T13:44:00.851Z,1.71
2018-11-21T13:46:48.457Z,1.75
2018-11-21T13:49:36.429Z,1.74
2018-11-21T13:52:25.366Z,1.74
2018-11-21T13:55:12.069Z,1.76
2018-11-21T13:58:00.119Z,1.77
2018-11-21T14:00:28.966Z,1.74
2018-11-21T14:03:19.289Z,1.74
2018-11-21T14:05:50.710Z,1.74
2018-11-21T14:08:19.429Z,1.73
2018-11-21T14:14:17.980Z,1.73
2018-11-21T14:16:46.591Z,1.68
2018-11-21T14:19:22.715Z,1.69
2018-11-21T14:21:55.863Z,1.67
2018-11-21T14:24:21.760Z,1.67
2018-11-21T14:27:10.022Z,1.68
2018-11-21T14:35:31.911Z,1.65
2018-11-21T14:38:00.561Z,1.63
2018-11-21T14:40:29.238Z,1.59
2018-11-21T14:43:17.500Z,1.57
2018-11-21T14:45:46.333Z,1.57
2018-11-21T14:48:15.015Z,1.54
2018-11-21T14:51:03.394Z,1.50
2018-11-21T14:53:32.081Z,1.47
2018-11-21T14:56:00.752Z,1.44
2018-11-21T14:58:29.424Z,1.43
2018-11-21T15:01:17.742Z,1.43
2018-11-21T15:03:46.433Z,1.42
2018-11-21T15:06:15.095Z,1.38
2018-11-21T15:08:44.110Z,1.34
2018-11-21T15:11:34.853Z,1.33
2018-11-21T15:14:03.581Z,1.31
2018-11-21T15:16:32.175Z,1.27
2018-11-21T15:19:20.155Z,1.28
2018-11-21T15:21:48.785Z,1.29
2018-11-21T15:24:20.194Z,1.28
2018-11-21T15:30:00.029Z,1.20
2018-11-21T15:35:20.213Z,1.17
2018-11-21T15:37:48.964Z,1.21
2018-11-21T15:40:20.906Z,1.22
2018-11-21T15:43:09.222Z,1.20
2018-11-21T15:45:39.511Z,1.17
2018-11-21T15:48:08.127Z,1.16
2018-11-21T15:50:59.174Z,1.16
2018-11-21T15:53:58.056Z,1.16
2018-11-21T15:56:25.835Z,1.18
2018-11-21T15:59:15.977Z,1.16
2018-11-21T16:01:42.775Z,1.13
2018-11-21T16:04:11.446Z,1.13
2018-11-21T16:07:01.793Z,1.12
2018-11-21T16:09:30.461Z,1.11
2018-11-21T16:11:59.103Z,1.11
2018-11-21T16:14:27.748Z,1.16
2018-11-21T16:17:16.047Z,1.16
2018-11-21T16:20:03.953Z,1.15
2018-11-21T16:22:32.731Z,1.13
2018-11-21T16:25:23.939Z,1.05
2018-11-21T16:27:52.991Z,1.07
2018-11-21T16:30:59.864Z,1.03
2018-11-21T16:33:40.914Z,1.05
2018-11-21T16:36:12.094Z,1.10
2018-11-21T16:38:40.759Z,1.07
2018-11-21T16:41:29.001Z,1.07
2018-11-21T16:43:57.653Z,1.04
2018-11-21T16:46:26.308Z,1.06
2018-11-21T16:48:55.029Z,1.09
2018-11-21T16:51:43.315Z,1.07
2018-11-21T16:54:14.039Z,1.04
2018-11-21T16:56:42.725Z,1.01
2018-11-21T16:59:49.994Z,1.02
2018-11-21T17:02:21.217Z,1.01
2018-11-21T17:04:49.811Z,0.98
2018-11-21T17:07:38.140Z,1.00
2018-11-21T17:10:09.635Z,1.01
2018-11-21T17:12:57.919Z,0.97
2018-11-21T17:15:28.159Z,0.98
2018-11-21T17:21:03.832Z,0.96
2018-11-21T17:23:53.336Z,0.96
2018-11-21T17:26:20.753Z,0.98
2018-11-21T17:29:28.030Z,0.98
2018-11-21T17:31:56.727Z,1.03
2018-11-21T17:34:25.389Z,1.04
2018-11-21T17:37:13.602Z,1.06
2018-11-21T17:39:42.386Z,1.03
2018-11-21T17:42:11.075Z,1.10
2018-11-21T17:44:39.821Z,1.07
2018-11-21T17:47:28.059Z,1.05
2018-11-21T17:49:56.915Z,1.09
2018-11-21T17:52:28.568Z,1.11
2018-11-21T17:54:57.232Z,1.09
2018-11-21T18:00:56.103Z,1.07
2018-11-21T18:06:32.059Z,1.11
2018-11-21T18:09:03.231Z,1.14
2018-11-21T18:11:31.831Z,1.15
2018-11-21T18:14:39.103Z,1.14
2018-11-21T18:17:27.045Z,1.16
2018-11-21T18:19:55.779Z,1.18
2018-11-21T18:22:44.397Z,1.20
2018-11-21T18:25:15.652Z,1.18
2018-11-21T18:30:54.352Z,1.13
2018-11-21T18:42:08.416Z,1.08
2018-11-21T18:44:56.422Z,1.07
2018-11-21T18:47:27.142Z,1.07
2018-11-21T18:49:55.769Z,1.08
2018-11-21T18:52:44.381Z,1.10
2018-11-21T18:55:15.336Z,1.11
2018-11-21T18:58:24.649Z,1.16
2018-11-21T19:00:53.414Z,1.19
2018-11-21T19:03:22.067Z,1.22
2018-11-21T19:06:10.302Z,1.19
2018-11-21T19:11:49.340Z,1.15
2018-11-21T19:14:40.868Z,1.17
2018-11-21T19:17:28.859Z,1.18
2018-11-21T19:20:16.617Z,1.16
2018-11-21T19:22:48.149Z,1.08
2018-11-21T19:25:16.952Z,1.14
2018-11-21T19:28:05.285Z,1.13
2018-11-21T19:30:39.321Z,1.11
2018-11-21T19:33:27.326Z,1.09
2018-11-21T19:35:55.974Z,1.08
2018-11-21T19:38:24.681Z,1.09
2018-11-21T19:44:00.587Z,1.07
2018-11-21T19:46:29.196Z,1.07
2018-11-21T19:49:17.451Z,1.05
2018-11-21T19:51:47.672Z,1.00
2018-11-21T19:54:16.281Z,1.01
2018-11-21T19:57:08.440Z,1.01
2018-11-21T19:59:43.354Z,1.03
2018-11-21T20:02:45.055Z,1.06
2018-11-21T20:05:13.949Z,1.04
2018-11-21T20:07:42.580Z,1.08
2018-11-21T20:10:35.183Z,1.05
2018-11-21T20:13:38.080Z,1.05
2018-11-21T20:16:17.723Z,1.05
2018-11-21T20:18:46.397Z,1.10
2018-11-21T20:21:15.365Z,1.08
2018-11-21T20:23:46.208Z,1.09
2018-11-21T20:26:36.331Z,1.11
2018-11-21T20:29:03.113Z,1.14
2018-11-21T20:31:31.827Z,1.13
2018-11-21T20:34:00.465Z,1.11
2018-11-21T20:36:48.751Z,1.10
2018-11-21T20:39:19.950Z,1.06
2018-11-21T20:42:08.167Z,1.09
2018-11-21T20:47:24.598Z,1.15
2018-11-21T20:50:17.480Z,1.18
2018-11-21T20:52:49.123Z,1.13
2018-11-21T20:55:20.661Z,1.06
2018-11-21T20:58:11.180Z,1.02
2018-11-21T21:00:39.912Z,1.03
2018-11-21T21:03:11.226Z,1.07
2018-11-21T21:05:39.883Z,1.06
2018-11-21T21:08:28.740Z,1.03
2018-11-21T21:10:57.374Z,1.09
2018-11-21T21:13:26.045Z,1.13
2018-11-21T21:16:14.309Z,1.08
2018-11-21T21:18:43.055Z,1.05
2018-11-21T21:21:15.691Z,1.01
2018-11-21T21:23:40.286Z,0.98
2018-11-21T21:26:28.555Z,1.05
2018-11-21T21:29:21.208Z,1.03
2018-11-21T21:34:39.767Z,1.03
2018-11-21T21:37:09.787Z,1.04
2018-11-21T21:39:57.104Z,1.04
2018-11-21T21:42:25.892Z,1.05
2018-11-21T21:44:54.641Z,1.07
2018-11-21T21:47:23.303Z,1.03
2018-11-21T21:50:30.583Z,1.03
2018-11-21T21:52:59.231Z,1.03
2018-11-21T21:55:28.966Z,1.05
2018-11-21T21:58:17.243Z,1.06
2018-11-21T22:00:47.485Z,1.04
2018-11-21T22:03:16.198Z,1.05
2018-11-21T22:06:06.895Z,1.05
2018-11-21T22:08:35.598Z,1.04
2018-11-21T22:11:05.308Z,1.06
2018-11-21T22:13:35.387Z,1.03
2018-11-21T22:16:22.334Z,0.98
2018-11-21T22:18:51.062Z,0.97
2018-11-21T22:21:39.322Z,0.97
2018-11-21T22:24:08.038Z,0.97
2018-11-21T22:26:36.777Z,1.01
2018-11-21T22:29:05.782Z,1.01
2018-11-21T22:31:53.968Z,0.98
2018-11-21T22:34:24.564Z,1.02
2018-11-21T22:36:51.380Z,1.02
2018-11-21T22:39:20.000Z,1.00
2018-11-21T22:42:08.262Z,1.00
2018-11-21T22:44:44.374Z,1.01
2018-11-21T22:47:13.053Z,0.99
2018-11-21T22:50:01.302Z,1.00
2018-11-21T22:52:30.078Z,1.00
2018-11-21T22:54:58.787Z,1.06
2018-11-21T22:57:48.463Z,1.09
2018-11-21T23:00:19.358Z,1.06
2018-11-21T23:02:48.060Z,1.09
2018-11-21T23:05:16.700Z,1.10
2018-11-21T23:08:04.982Z,1.14
2018-11-21T23:10:33.657Z,1.14
2018-11-21T23:13:02.323Z,1.16
2018-11-21T23:15:33.130Z,1.17
2018-11-21T23:18:21.386Z,1.23
2018-11-21T23:20:52.576Z,1.24
2018-11-21T23:23:21.208Z,1.25
2018-11-21T23:26:02.433Z,1.27
2018-11-21T23:28:43.582Z,1.28
2018-11-21T23:31:12.308Z,1.26
2018-11-21T23:33:40.945Z,1.28
2018-11-21T23:36:29.207Z,1.28
2018-11-21T23:38:57.853Z,1.30
2018-11-21T23:41:46.139Z,1.29
2018-11-21T23:44:14.859Z,1.27
2018-11-21T23:46:45.791Z,1.29
2018-11-21T23:49:14.469Z,1.26
2018-11-21T23:52:02.746Z,1.25
2018-11-21T23:54:31.490Z,1.23
2018-11-21T23:57:15.895Z,1.25
